createdAt,value
2023-02-18T00:01:34.389Z,11.35
2023-02-18T00:04:02.918Z,11.35
2023-02-18T00:06:34.439Z,11.35
2023-02-18T00:09:04.873Z,11.34
2023-02-18T00:11:35.826Z,11.33
2023-02-18T00:14:06.063Z,11.33
2023-02-18T00:16:34.564Z,11.32
2023-02-18T00:19:05.202Z,11.31
2023-02-18T00:21:36.708Z,11.29
2023-02-18T00:24:06.120Z,11.29
2023-02-18T00:26:35.140Z,11.28
2023-02-18T00:29:04.134Z,11.28
2023-02-18T00:31:34.580Z,11.27
2023-02-18T00:34:04.578Z,11.25
2023-02-18T00:36:35.797Z,11.23
2023-02-18T00:39:07.352Z,11.23
2023-02-18T00:41:36.490Z,11.21
2023-02-18T00:44:05.678Z,11.20
2023-02-18T00:46:36.006Z,11.19
2023-02-18T00:49:05.316Z,11.19
2023-02-18T00:51:35.543Z,11.18
2023-02-18T00:54:04.023Z,11.19
2023-02-18T00:56:33.188Z,11.19
2023-02-18T00:59:01.609Z,11.18
2023-02-18T01:01:30.793Z,11.17
2023-02-18T01:03:59.201Z,11.17
2023-02-18T01:06:27.812Z,11.17
2023-02-18T01:08:57.537Z,11.16
2023-02-18T01:11:26.188Z,11.16
2023-02-18T01:13:54.763Z,11.16
2023-02-18T01:16:23.426Z,11.15
2023-02-18T01:18:51.862Z,11.14
2023-02-18T01:21:20.346Z,11.15
2023-02-18T01:23:48.748Z,11.14
2023-02-18T01:26:19.247Z,11.14
2023-02-18T01:28:47.688Z,11.15
2023-02-18T01:31:16.296Z,11.14
2023-02-18T01:33:44.896Z,11.13
2023-02-18T01:36:13.863Z,11.12
2023-02-18T01:38:42.264Z,11.10
2023-02-18T01:41:11.278Z,11.10
2023-02-18T01:43:41.043Z,11.10
2023-02-18T01:46:17.580Z,11.10
2023-02-18T01:48:52.448Z,11.10
2023-02-18T01:51:24.871Z,11.10
2023-02-18T01:53:57.528Z,11.09
2023-02-18T01:56:30.004Z,11.10
2023-02-18T01:59:04.018Z,11.07
2023-02-18T02:01:33.846Z,11.05
2023-02-18T02:04:03.540Z,11.05
2023-02-18T02:06:32.099Z,11.05
2023-02-18T02:09:03.253Z,11.06
2023-02-18T02:11:49.175Z,11.03
2023-02-18T02:14:28.735Z,11.02
2023-02-18T02:17:04.000Z,11.01
2023-02-18T02:20:22.358Z,11.00
2023-02-18T02:23:29.976Z,10.99
2023-02-18T02:26:33.721Z,11.00
2023-02-18T02:29:20.124Z,10.97
2023-02-18T02:32:10.312Z,10.96
2023-02-18T02:34:48.643Z,10.96
2023-02-18T02:37:25.373Z,10.94
2023-02-18T02:40:07.827Z,10.93
2023-02-18T02:42:47.899Z,10.92
2023-02-18T02:45:25.556Z,10.90
2023-02-18T02:48:02.835Z,10.90
2023-02-18T02:50:39.578Z,10.89
2023-02-18T02:53:15.685Z,10.87
2023-02-18T02:55:44.028Z,10.88
2023-02-18T02:58:16.833Z,10.86
2023-02-18T03:00:59.518Z,10.86
2023-02-18T03:03:45.017Z,10.86
2023-02-18T03:06:50.351Z,10.85
2023-02-18T03:09:25.350Z,10.85
2023-02-18T03:12:02.719Z,10.85
2023-02-18T03:14:45.843Z,10.85
2023-02-18T03:17:23.327Z,10.88
2023-02-18T03:19:58.796Z,10.89
2023-02-18T03:22:32.514Z,10.90
2023-02-18T03:25:04.946Z,10.89
2023-02-18T03:27:39.827Z,10.88
2023-02-18T03:30:14.567Z,10.86
2023-02-18T03:32:45.089Z,10.85
2023-02-18T03:35:16.536Z,10.83
2023-02-18T03:37:51.504Z,10.80
2023-02-18T03:40:20.537Z,10.78
2023-02-18T03:42:48.946Z,10.77
2023-02-18T03:45:18.721Z,10.75
2023-02-18T03:47:47.259Z,10.75
2023-02-18T03:50:17.438Z,10.73
2023-02-18T03:52:47.367Z,10.71
2023-02-18T03:55:15.810Z,10.71
2023-02-18T03:57:44.212Z,10.69
2023-02-18T04:00:13.348Z,10.70
2023-02-18T04:02:42.109Z,10.68
2023-02-18T04:05:10.501Z,10.67
2023-02-18T04:07:38.909Z,10.65
2023-02-18T04:10:09.721Z,10.65
2023-02-18T04:12:38.122Z,10.64
2023-02-18T04:15:06.762Z,10.63
2023-02-18T04:17:35.604Z,10.62
2023-02-18T04:20:04.828Z,10.61
2023-02-18T04:22:33.587Z,10.59
2023-02-18T04:25:01.892Z,10.57
2023-02-18T04:27:31.652Z,10.56
2023-02-18T04:30:00.310Z,10.54
2023-02-18T04:32:29.036Z,10.53
2023-02-18T04:34:57.561Z,10.52
2023-02-18T04:37:26.112Z,10.51
2023-02-18T04:39:54.458Z,10.50
2023-02-18T04:42:22.908Z,10.47
2023-02-18T04:44:52.651Z,10.47
2023-02-18T04:47:20.988Z,10.44
2023-02-18T04:49:49.448Z,10.42
2023-02-18T04:52:18.020Z,10.42
2023-02-18T04:54:47.139Z,10.40
2023-02-18T04:57:15.527Z,10.38
2023-02-18T04:59:43.979Z,10.37
2023-02-18T05:02:13.720Z,10.34
2023-02-18T05:04:42.048Z,10.34
2023-02-18T05:07:10.358Z,10.32
2023-02-18T05:09:38.832Z,10.32
2023-02-18T05:12:08.086Z,10.30
2023-02-18T05:14:36.461Z,10.30
2023-02-18T05:17:04.744Z,10.29
2023-02-18T05:19:34.450Z,10.28
2023-02-18T05:22:02.778Z,10.26
2023-02-18T05:24:31.113Z,10.25
2023-02-18T05:26:59.441Z,10.24
2023-02-18T05:29:27.877Z,10.23
2023-02-18T05:31:56.262Z,10.21
2023-02-18T05:34:24.672Z,10.20
2023-02-18T05:36:54.406Z,10.20
2023-02-18T05:39:22.785Z,10.19
2023-02-18T05:41:51.191Z,10.18
2023-02-18T05:44:31.434Z,10.15
2023-02-18T05:47:01.060Z,10.14
2023-02-18T05:49:30.180Z,10.12
2023-02-18T05:52:00.787Z,10.12
2023-02-18T05:54:29.623Z,10.11
2023-02-18T05:56:57.940Z,10.10
2023-02-18T05:59:26.393Z,10.09
2023-02-18T06:01:54.964Z,10.08
2023-02-18T06:04:23.624Z,10.08
2023-02-18T06:06:52.137Z,10.07
2023-02-18T06:09:21.853Z,10.05
2023-02-18T06:11:50.437Z,10.05
2023-02-18T06:14:18.740Z,10.04
2023-02-18T06:16:47.172Z,10.04
2023-02-18T06:19:15.485Z,10.02
2023-02-18T06:21:43.841Z,10.03
2023-02-18T06:24:12.296Z,10.01
2023-02-18T06:26:42.059Z,10.00
2023-02-18T06:29:10.497Z,10.00
2023-02-18T06:31:38.982Z,10.02
2023-02-18T06:34:07.414Z,10.00
2023-02-18T06:36:35.830Z,10.00
2023-02-18T06:39:06.071Z,9.98
2023-02-18T06:41:34.853Z,9.97
2023-02-18T06:44:04.849Z,9.96
2023-02-18T06:46:33.368Z,9.96
2023-02-18T06:49:01.819Z,9.94
2023-02-18T06:51:30.179Z,9.95
2023-02-18T06:53:58.581Z,9.94
2023-02-18T06:56:27.047Z,9.93
2023-02-18T06:58:55.422Z,9.93
2023-02-18T07:01:25.144Z,9.93
2023-02-18T07:03:53.540Z,9.94
2023-02-18T07:06:21.939Z,9.93
2023-02-18T07:08:50.309Z,9.91
2023-02-18T07:11:18.900Z,9.94
2023-02-18T07:13:47.361Z,9.93
2023-02-18T07:16:15.791Z,9.94
2023-02-18T07:18:45.524Z,9.95
2023-02-18T07:21:13.948Z,9.94
2023-02-18T07:23:42.315Z,9.95
2023-02-18T07:26:12.893Z,9.95
2023-02-18T07:28:41.986Z,9.96
2023-02-18T07:31:10.838Z,9.98
2023-02-18T07:33:39.361Z,9.98
2023-02-18T07:36:10.619Z,9.99
2023-02-18T07:38:39.057Z,9.99
2023-02-18T07:41:07.439Z,10.01
2023-02-18T07:43:35.765Z,10.02
2023-02-18T07:46:10.054Z,10.03
2023-02-18T07:48:38.660Z,10.04
2023-02-18T07:51:07.666Z,10.04
2023-02-18T07:53:38.103Z,10.04
2023-02-18T07:56:07.981Z,10.03
2023-02-18T07:58:38.985Z,10.02
2023-02-18T08:01:08.684Z,10.00
2023-02-18T08:03:37.664Z,9.98
2023-02-18T08:06:08.136Z,9.96
2023-02-18T08:08:38.118Z,9.93
2023-02-18T08:11:18.642Z,9.91
2023-02-18T08:13:47.671Z,9.88
2023-02-18T08:16:16.592Z,9.84
2023-02-18T08:18:45.542Z,9.78
2023-02-18T08:21:13.939Z,9.74
2023-02-18T08:23:43.724Z,9.69
2023-02-18T08:26:12.711Z,9.67
2023-02-18T08:28:43.795Z,9.64
2023-02-18T08:31:18.376Z,9.61
2023-02-18T08:33:46.583Z,9.61
2023-02-18T08:36:14.866Z,9.60
2023-02-18T08:38:44.848Z,9.60
2023-02-18T08:41:14.443Z,9.61
2023-02-18T08:43:43.249Z,9.62
2023-02-18T08:46:15.931Z,9.61
2023-02-18T08:48:44.844Z,9.64
2023-02-18T08:51:15.222Z,9.65
2023-02-18T08:53:46.413Z,9.66
2023-02-18T08:56:15.782Z,9.68
2023-02-18T08:58:44.495Z,9.68
2023-02-18T09:01:14.385Z,9.68
2023-02-18T09:03:42.856Z,9.65
2023-02-18T09:06:11.253Z,9.64
2023-02-18T09:08:39.637Z,9.64
2023-02-18T09:11:11.108Z,9.61
2023-02-18T09:13:40.123Z,9.58
2023-02-18T09:16:12.274Z,9.58
2023-02-18T09:18:41.274Z,9.57
2023-02-18T09:21:12.144Z,9.56
2023-02-18T09:23:41.064Z,9.55
2023-02-18T09:26:15.456Z,9.53
2023-02-18T09:28:44.319Z,9.54
2023-02-18T09:31:16.118Z,9.54
2023-02-18T09:33:51.233Z,9.55
2023-02-18T09:36:20.754Z,9.55
2023-02-18T09:38:49.739Z,9.56
2023-02-18T09:41:31.254Z,9.56
2023-02-18T09:44:02.527Z,9.57
2023-02-18T09:46:34.120Z,9.58
2023-02-18T09:49:05.303Z,9.57
2023-02-18T09:51:33.931Z,9.59
2023-02-18T09:54:02.292Z,9.59
2023-02-18T09:56:34.715Z,9.59
2023-02-18T09:59:06.469Z,9.59
2023-02-18T10:01:38.331Z,9.60
2023-02-18T10:04:14.550Z,9.60
2023-02-18T10:06:44.797Z,9.61
2023-02-18T10:09:19.676Z,9.62
2023-02-18T10:11:52.542Z,9.63
2023-02-18T10:14:20.989Z,9.66
2023-02-18T10:16:53.676Z,9.67
2023-02-18T10:19:27.300Z,9.68
2023-02-18T10:21:57.056Z,9.69
2023-02-18T10:24:30.597Z,9.69
2023-02-18T10:27:02.530Z,9.70
2023-02-18T10:29:32.314Z,9.71
2023-02-18T10:32:07.141Z,9.71
2023-02-18T10:34:42.681Z,9.71
2023-02-18T10:37:28.783Z,9.70
2023-02-18T10:40:07.596Z,9.66
2023-02-18T10:42:47.630Z,9.63
2023-02-18T10:45:25.654Z,9.60
2023-02-18T10:48:08.499Z,9.59
2023-02-18T10:50:39.298Z,9.56
2023-02-18T10:53:14.003Z,9.54
2023-02-18T10:55:44.298Z,9.53
2023-02-18T10:58:34.685Z,9.51
2023-02-18T11:01:08.608Z,9.48
2023-02-18T11:03:43.478Z,9.45
2023-02-18T11:06:22.836Z,9.43
2023-02-18T11:08:51.986Z,9.41
2023-02-18T11:11:26.436Z,9.39
2023-02-18T11:13:58.246Z,9.36
2023-02-18T11:16:38.863Z,9.34
2023-02-18T11:19:34.632Z,9.34
2023-02-18T11:22:16.774Z,9.31
2023-02-18T11:24:48.292Z,9.31
2023-02-18T11:27:24.665Z,9.29
2023-02-18T11:30:01.154Z,9.27
2023-02-18T11:32:31.584Z,9.27
2023-02-18T11:34:59.996Z,9.26
2023-02-18T11:37:28.381Z,9.25
2023-02-18T11:39:57.416Z,9.24
2023-02-18T11:42:28.039Z,9.25
2023-02-18T11:44:59.275Z,9.24
2023-02-18T11:47:32.182Z,9.23
2023-02-18T11:50:15.525Z,9.23
2023-02-18T11:52:45.822Z,9.24
2023-02-18T11:55:17.811Z,9.25
2023-02-18T11:57:49.283Z,9.25
2023-02-18T12:00:25.508Z,9.27
2023-02-18T12:02:57.674Z,9.26
2023-02-18T12:05:28.749Z,9.26
2023-02-18T12:08:03.044Z,9.26
2023-02-18T12:10:35.886Z,9.26
2023-02-18T12:13:09.326Z,9.28
2023-02-18T12:15:53.663Z,9.29
2023-02-18T12:18:47.956Z,9.29
2023-02-18T12:21:27.149Z,9.31
2023-02-18T12:24:04.807Z,9.31
2023-02-18T12:26:41.028Z,9.32
2023-02-18T12:29:22.919Z,9.33
2023-02-18T12:32:06.181Z,9.33
2023-02-18T12:34:50.507Z,9.33
2023-02-18T12:37:42.018Z,9.33
2023-02-18T12:40:24.738Z,9.32
2023-02-18T12:43:02.466Z,9.33
2023-02-18T12:45:45.317Z,9.33
2023-02-18T12:48:29.598Z,9.33
2023-02-18T12:51:10.272Z,9.35
2023-02-18T12:54:01.816Z,9.35
2023-02-18T12:56:53.355Z,9.37
2023-02-18T12:59:43.698Z,9.37
2023-02-18T13:02:28.217Z,9.36
2023-02-18T13:05:06.059Z,9.39
2023-02-18T13:07:56.361Z,9.39
2023-02-18T13:10:52.334Z,9.40
2023-02-18T13:13:23.219Z,9.40
2023-02-18T13:15:57.613Z,9.40
2023-02-18T13:18:31.117Z,9.40
2023-02-18T13:21:05.806Z,9.42
2023-02-18T13:23:38.767Z,9.42
2023-02-18T13:26:10.825Z,9.43
2023-02-18T13:28:44.435Z,9.44
2023-02-18T13:31:25.008Z,9.44
2023-02-18T13:34:02.060Z,9.45
2023-02-18T13:36:48.305Z,9.46
2023-02-18T13:39:20.501Z,9.47
2023-02-18T13:41:50.876Z,9.47
2023-02-18T13:44:57.697Z,9.47
2023-02-18T13:47:38.649Z,9.47
2023-02-18T13:50:23.395Z,9.49
2023-02-18T13:53:01.063Z,9.51
2023-02-18T13:55:40.303Z,9.52
2023-02-18T13:58:16.155Z,9.53
2023-02-18T14:00:52.358Z,9.53
2023-02-18T14:03:35.981Z,9.52
2023-02-18T14:06:15.437Z,9.52
2023-02-18T14:08:45.932Z,9.53
2023-02-18T14:11:42.177Z,9.55
2023-02-18T14:14:34.803Z,9.56
2023-02-18T14:17:41.886Z,9.58
2023-02-18T14:20:48.268Z,9.59
2023-02-18T14:23:53.213Z,9.61
2023-02-18T14:26:33.317Z,9.62
2023-02-18T14:29:07.554Z,9.64
2023-02-18T14:31:46.112Z,9.66
2023-02-18T14:34:59.849Z,9.69
2023-02-18T14:37:53.284Z,9.72
2023-02-18T14:40:49.710Z,9.76
2023-02-18T14:43:34.275Z,9.76
2023-02-18T14:46:15.215Z,9.77
2023-02-18T14:49:00.395Z,9.78
2023-02-18T14:51:32.417Z,9.79
2023-02-18T14:54:05.607Z,9.79
2023-02-18T14:56:38.650Z,9.80
2023-02-18T14:59:09.171Z,9.81
2023-02-18T15:01:38.391Z,9.81
2023-02-18T15:04:06.852Z,9.82
2023-02-18T15:06:36.824Z,9.82
2023-02-18T15:09:14.995Z,9.83
2023-02-18T15:11:46.081Z,9.83
2023-02-18T15:14:21.054Z,9.83
2023-02-18T15:16:51.713Z,9.85
2023-02-18T15:19:22.870Z,9.85
2023-02-18T15:21:55.037Z,9.86
2023-02-18T15:24:27.276Z,9.85
2023-02-18T15:26:58.416Z,9.86
2023-02-18T15:29:31.503Z,9.86
2023-02-18T15:32:00.871Z,9.86
2023-02-18T15:34:36.634Z,9.87
2023-02-18T15:37:06.574Z,9.87
2023-02-18T15:39:38.537Z,9.87
2023-02-18T15:42:17.989Z,9.87
2023-02-18T15:44:51.314Z,9.89
2023-02-18T15:47:20.533Z,9.89
2023-02-18T15:49:54.015Z,9.89
2023-02-18T15:52:29.288Z,9.89
2023-02-18T15:55:02.508Z,9.89
2023-02-18T15:57:31.825Z,9.91
2023-02-18T16:00:07.314Z,9.92
2023-02-18T16:02:35.934Z,9.91
2023-02-18T16:05:05.588Z,9.92
2023-02-18T16:07:39.386Z,9.92
2023-02-18T16:10:21.367Z,9.92
2023-02-18T16:12:54.165Z,9.93
2023-02-18T16:15:28.171Z,9.93
2023-02-18T16:17:58.858Z,9.94
2023-02-18T16:20:32.675Z,9.94
2023-02-18T16:23:04.157Z,9.93
2023-02-18T16:25:43.297Z,9.94
2023-02-18T16:28:16.442Z,9.95
2023-02-18T16:30:46.671Z,9.95
2023-02-18T16:33:15.101Z,9.96
2023-02-18T16:35:50.020Z,9.96
2023-02-18T16:38:20.918Z,9.96
2023-02-18T16:40:50.119Z,9.96
2023-02-18T16:43:20.918Z,9.97
2023-02-18T16:45:52.513Z,9.99
2023-02-18T16:48:25.325Z,9.98
2023-02-18T16:50:54.191Z,9.99
2023-02-18T16:53:22.884Z,10.00
2023-02-18T16:55:51.977Z,10.01
2023-02-18T16:58:20.609Z,10.01
2023-02-18T17:00:53.124Z,10.01
2023-02-18T17:03:22.219Z,10.01
2023-02-18T17:05:50.775Z,10.01
2023-02-18T17:08:23.180Z,10.02
2023-02-18T17:10:52.611Z,10.02
2023-02-18T17:13:23.853Z,10.03
2023-02-18T17:15:55.777Z,10.03
2023-02-18T17:18:24.837Z,10.03
2023-02-18T17:20:54.864Z,10.04
2023-02-18T17:23:25.096Z,10.03
2023-02-18T17:25:54.319Z,10.05
2023-02-18T17:28:23.219Z,10.04
2023-02-18T17:30:56.693Z,10.06
2023-02-18T17:33:26.376Z,10.05
2023-02-18T17:35:55.116Z,10.07
2023-02-18T17:38:23.685Z,10.07
2023-02-18T17:40:52.111Z,10.08
2023-02-18T17:43:20.670Z,10.08
2023-02-18T17:45:52.369Z,10.09
2023-02-18T17:48:22.297Z,10.08
2023-02-18T17:50:51.298Z,10.09
2023-02-18T17:53:20.610Z,10.10
2023-02-18T17:55:49.796Z,10.11
2023-02-18T17:58:18.393Z,10.11
2023-02-18T18:00:49.290Z,10.11
2023-02-18T18:03:18.726Z,10.12
2023-02-18T18:05:51.899Z,10.11
2023-02-18T18:08:20.233Z,10.11
2023-02-18T18:10:51.101Z,10.12
2023-02-18T18:13:23.060Z,10.11
2023-02-18T18:15:51.859Z,10.11
2023-02-18T18:18:20.510Z,10.10
2023-02-18T18:20:53.474Z,10.09
2023-02-18T18:23:23.179Z,10.08
2023-02-18T18:25:53.069Z,10.06
2023-02-18T18:28:21.701Z,10.06
2023-02-18T18:30:51.752Z,10.07
2023-02-18T18:33:22.912Z,10.05
2023-02-18T18:35:54.662Z,10.04
2023-02-18T18:38:24.673Z,10.04
2023-02-18T18:40:54.056Z,10.04
2023-02-18T18:43:24.586Z,10.02
2023-02-18T18:45:53.508Z,10.02
2023-02-18T18:48:22.835Z,10.03
2023-02-18T18:50:54.436Z,10.03
2023-02-18T18:53:25.034Z,10.02
2023-02-18T18:55:55.186Z,10.01
2023-02-18T18:58:24.792Z,10.02
2023-02-18T19:00:55.263Z,10.00
2023-02-18T19:03:24.969Z,10.00
2023-02-18T19:05:54.981Z,10.00
2023-02-18T19:08:23.705Z,10.00
2023-02-18T19:10:53.862Z,9.98
2023-02-18T19:13:24.891Z,9.98
2023-02-18T19:16:02.077Z,9.96
2023-02-18T19:18:32.401Z,9.94
2023-02-18T19:21:03.468Z,9.93
2023-02-18T19:23:31.973Z,9.93
2023-02-18T19:26:00.724Z,9.93
2023-02-18T19:28:29.536Z,9.92
2023-02-18T19:30:57.899Z,9.92
2023-02-18T19:33:26.311Z,9.91
2023-02-18T19:35:54.685Z,9.91
2023-02-18T19:38:24.402Z,9.90
2023-02-18T19:40:53.901Z,9.92
2023-02-18T19:43:22.312Z,9.91
2023-02-18T19:45:51.039Z,9.91
2023-02-18T19:48:20.804Z,9.91
2023-02-18T19:50:49.167Z,9.90
2023-02-18T19:53:17.554Z,9.91
2023-02-18T19:55:47.274Z,9.91
2023-02-18T19:58:15.595Z,9.91
2023-02-18T20:00:44.543Z,9.92
2023-02-18T20:03:12.891Z,9.92
2023-02-18T20:05:41.316Z,9.91
2023-02-18T20:08:09.804Z,9.92
2023-02-18T20:10:38.398Z,9.92
2023-02-18T20:13:11.341Z,9.92
2023-02-18T20:15:40.756Z,9.94
2023-02-18T20:18:09.136Z,9.93
2023-02-18T20:20:37.485Z,9.94
2023-02-18T20:23:05.851Z,9.94
2023-02-18T20:25:34.133Z,9.96
2023-02-18T20:28:02.414Z,9.96
2023-02-18T20:30:32.114Z,9.96
2023-02-18T20:33:00.444Z,9.97
2023-02-18T20:35:28.859Z,9.96
2023-02-18T20:37:57.208Z,9.97
2023-02-18T20:40:25.596Z,9.98
2023-02-18T20:42:53.945Z,9.97
2023-02-18T20:45:22.371Z,9.97
2023-02-18T20:47:52.204Z,9.97
2023-02-18T20:50:21.715Z,9.98
2023-02-18T20:52:50.059Z,9.99
2023-02-18T20:55:18.632Z,10.00
2023-02-18T20:57:46.992Z,10.00
2023-02-18T21:00:16.501Z,10.00
2023-02-18T21:02:44.929Z,10.01
2023-02-18T21:05:14.634Z,10.00
2023-02-18T21:07:42.975Z,10.01
2023-02-18T21:10:11.308Z,10.00
2023-02-18T21:12:39.688Z,10.01
2023-02-18T21:15:08.676Z,9.99
2023-02-18T21:17:37.065Z,10.01
2023-02-18T21:20:06.700Z,10.00
2023-02-18T21:22:36.409Z,10.01
2023-02-18T21:25:05.130Z,10.00
2023-02-18T21:27:33.521Z,10.00
2023-02-18T21:30:04.159Z,9.99
2023-02-18T21:32:32.567Z,10.00
2023-02-18T21:35:00.939Z,10.00
2023-02-18T21:37:29.333Z,10.00
2023-02-18T21:40:02.193Z,9.99
2023-02-18T21:42:31.534Z,9.99
2023-02-18T21:44:59.877Z,9.99
2023-02-18T21:47:28.239Z,9.99
2023-02-18T21:49:56.605Z,9.98
2023-02-18T21:52:27.625Z,9.98
2023-02-18T21:54:56.128Z,9.99
2023-02-18T21:57:26.265Z,9.99
2023-02-18T21:59:54.601Z,9.98
2023-02-18T22:02:25.002Z,9.99
2023-02-18T22:04:53.862Z,10.00
2023-02-18T22:07:25.849Z,9.98
2023-02-18T22:09:54.994Z,9.99
2023-02-18T22:12:26.280Z,9.99
2023-02-18T22:14:54.655Z,9.99
2023-02-18T22:17:23.041Z,10.00
2023-02-18T22:19:51.348Z,9.99
2023-02-18T22:22:19.738Z,9.98
2023-02-18T22:24:48.048Z,9.98
2023-02-18T22:27:16.353Z,9.97
2023-02-18T22:29:47.180Z,9.97
2023-02-18T22:32:15.673Z,9.97
2023-02-18T22:34:44.103Z,9.96
2023-02-18T22:37:12.504Z,9.93
2023-02-18T22:39:41.135Z,9.95
2023-02-18T22:42:09.483Z,9.92
2023-02-18T22:44:39.307Z,9.92
2023-02-18T22:47:09.213Z,9.92
2023-02-18T22:49:37.605Z,9.92
2023-02-18T22:52:06.223Z,9.91
2023-02-18T22:54:34.621Z,9.92
2023-02-18T22:57:03.066Z,9.92
2023-02-18T22:59:31.458Z,9.92
2023-02-18T23:01:59.851Z,9.92
2023-02-18T23:04:29.668Z,9.93
2023-02-18T23:06:58.057Z,9.93
2023-02-18T23:09:26.615Z,9.94
2023-02-18T23:11:57.910Z,9.94
2023-02-18T23:14:28.147Z,9.94
2023-02-18T23:17:17.913Z,9.94
2023-02-18T23:19:48.996Z,9.94
2023-02-18T23:22:19.067Z,9.95
2023-02-18T23:24:49.414Z,9.95
2023-02-18T23:27:18.798Z,9.95
2023-02-18T23:29:47.311Z,9.95
2023-02-18T23:32:15.833Z,9.94
2023-02-18T23:34:44.228Z,9.96
2023-02-18T23:37:14.059Z,9.96
2023-02-18T23:39:44.962Z,9.96
2023-02-18T23:42:14.201Z,9.97
2023-02-18T23:44:42.561Z,9.98
2023-02-18T23:47:10.892Z,9.96
2023-02-18T23:49:39.197Z,9.98
2023-02-18T23:52:07.530Z,9.97
2023-02-18T23:54:37.296Z,9.97
2023-02-18T23:57:05.646Z,9.97
2023-02-18T23:59:34.049Z,9.96
